createdAt,value
2023-07-08T00:00:40.430Z,11.73
2023-07-08T00:03:07.227Z,11.69
2023-07-08T00:05:33.853Z,11.64
2023-07-08T00:08:00.508Z,11.59
2023-07-08T00:10:29.279Z,11.55
2023-07-08T00:12:58.125Z,11.52
2023-07-08T00:15:33.200Z,11.49
2023-07-08T00:18:00.920Z,11.45
2023-07-08T00:20:38.500Z,11.42
2023-07-08T00:23:05.769Z,11.38
2023-07-08T00:25:33.513Z,11.36
2023-07-08T00:28:00.001Z,11.34
2023-07-08T00:30:29.254Z,11.33
2023-07-08T00:32:57.219Z,11.30
2023-07-08T00:35:35.247Z,11.26
2023-07-08T00:38:02.997Z,11.23
2023-07-08T00:40:34.372Z,11.20
2023-07-08T00:43:04.633Z,11.15
2023-07-08T00:46:02.106Z,11.11
2023-07-08T00:48:35.632Z,11.06
2023-07-08T00:51:02.705Z,11.06
2023-07-08T00:53:30.714Z,11.06
2023-07-08T00:56:20.185Z,11.04
2023-07-08T00:58:52.370Z,10.99
2023-07-08T01:01:19.493Z,10.96
2023-07-08T01:03:55.482Z,10.95
2023-07-08T01:06:24.208Z,10.92
2023-07-08T01:08:51.815Z,10.90
2023-07-08T01:11:18.562Z,10.89
2023-07-08T01:13:45.668Z,10.88
2023-07-08T01:16:12.332Z,10.86
2023-07-08T01:18:39.883Z,10.84
2023-07-08T01:21:29.450Z,10.80
2023-07-08T01:23:56.201Z,10.75
2023-07-08T01:26:25.199Z,10.71
2023-07-08T01:28:53.606Z,10.67
2023-07-08T01:31:20.620Z,10.62
2023-07-08T01:33:47.292Z,10.58
2023-07-08T01:36:14.099Z,10.56
2023-07-08T01:38:41.912Z,10.55
2023-07-08T01:41:13.538Z,10.53
2023-07-08T01:43:40.231Z,10.49
2023-07-08T01:46:16.849Z,10.46
2023-07-08T01:48:49.412Z,10.43
2023-07-08T01:51:16.156Z,10.39
2023-07-08T01:53:44.592Z,10.38
2023-07-08T01:56:13.650Z,10.38
2023-07-08T01:58:40.508Z,10.35
2023-07-08T02:01:08.061Z,10.30
2023-07-08T02:03:35.317Z,10.27
2023-07-08T02:06:02.509Z,10.23
2023-07-08T02:08:29.028Z,10.20
2023-07-08T02:11:00.292Z,10.16
2023-07-08T02:13:27.784Z,10.12
2023-07-08T02:15:54.515Z,10.07
2023-07-08T02:18:21.242Z,10.03
2023-07-08T02:20:48.379Z,9.99
2023-07-08T02:23:15.929Z,9.93
2023-07-08T02:25:42.700Z,9.90
2023-07-08T02:28:09.163Z,9.87
2023-07-08T02:30:35.676Z,9.84
2023-07-08T02:33:02.197Z,9.82
2023-07-08T02:35:31.161Z,9.80
2023-07-08T02:37:58.968Z,9.80
2023-07-08T02:40:26.610Z,9.83
2023-07-08T02:42:53.845Z,9.83
2023-07-08T02:45:20.596Z,9.83
2023-07-08T02:47:47.249Z,9.81
2023-07-08T02:50:14.137Z,9.80
2023-07-08T02:52:40.817Z,9.81
2023-07-08T02:55:08.415Z,9.80
2023-07-08T02:57:35.166Z,9.78
2023-07-08T03:00:01.937Z,9.78
2023-07-08T03:02:28.573Z,9.78
2023-07-08T03:04:55.273Z,9.80
2023-07-08T03:07:25.050Z,9.82
2023-07-08T03:09:51.899Z,9.84
2023-07-08T03:12:18.397Z,9.88
2023-07-08T03:14:44.950Z,9.98
2023-07-08T03:17:11.547Z,10.23
2023-07-08T03:19:38.287Z,10.51
2023-07-08T03:22:05.133Z,10.80
2023-07-08T03:24:31.696Z,11.14
2023-07-08T03:26:58.303Z,11.48
2023-07-08T03:29:24.962Z,11.79
2023-07-08T03:31:51.614Z,12.04
2023-07-08T03:34:18.767Z,12.32
2023-07-08T03:36:51.248Z,12.66
2023-07-08T03:39:23.509Z,13.05
2023-07-08T03:41:52.998Z,13.39
2023-07-08T03:44:20.092Z,13.71
2023-07-08T03:46:49.303Z,14.00
2023-07-08T03:49:17.326Z,14.14
2023-07-08T03:51:44.340Z,14.38
2023-07-08T03:54:13.540Z,14.74
2023-07-08T03:56:40.480Z,15.07
2023-07-08T03:59:06.991Z,15.38
2023-07-08T04:01:33.517Z,15.72
2023-07-08T04:04:01.236Z,16.08
2023-07-08T04:06:28.611Z,16.41
2023-07-08T04:08:55.752Z,16.62
2023-07-08T04:11:24.328Z,16.82
2023-07-08T04:13:51.746Z,16.96
2023-07-08T04:16:22.038Z,17.17
2023-07-08T04:18:49.448Z,17.23
2023-07-08T04:23:47.099Z,17.70
2023-07-08T04:26:13.929Z,17.97
2023-07-08T04:28:40.430Z,18.25
2023-07-08T04:31:07.038Z,18.27
2023-07-08T04:33:33.904Z,18.13
2023-07-08T04:36:00.446Z,18.28
2023-07-08T04:38:27.683Z,18.54
2023-07-08T04:40:55.450Z,18.87
2023-07-08T04:43:22.565Z,19.04
2023-07-08T04:45:52.163Z,19.39
2023-07-08T04:48:20.548Z,19.51
2023-07-08T04:50:49.668Z,19.79
2023-07-08T04:53:16.882Z,20.11
2023-07-08T04:55:51.353Z,20.12
2023-07-08T04:58:17.884Z,20.23
2023-07-08T05:00:44.588Z,20.70
2023-07-08T05:03:11.230Z,21.20
2023-07-08T05:05:37.746Z,21.51
2023-07-08T05:08:04.706Z,21.62
2023-07-08T05:10:31.622Z,21.66
2023-07-08T05:12:58.096Z,21.69
2023-07-08T05:15:24.701Z,21.84
2023-07-08T05:17:52.246Z,22.03
2023-07-08T05:20:19.361Z,22.24
2023-07-08T05:22:46.907Z,22.30
2023-07-08T05:25:14.439Z,22.58
2023-07-08T05:27:41.403Z,22.82
2023-07-08T05:30:17.151Z,22.75
2023-07-08T05:32:43.758Z,22.83
2023-07-08T05:35:11.061Z,22.34
2023-07-08T05:37:38.445Z,22.33
2023-07-08T05:40:06.137Z,22.76
2023-07-08T05:42:33.019Z,23.05
2023-07-08T05:44:59.985Z,23.37
2023-07-08T05:47:27.289Z,23.51
2023-07-08T05:49:53.825Z,23.72
2023-07-08T05:52:20.617Z,23.89
2023-07-08T05:54:47.115Z,24.19
2023-07-08T05:57:13.681Z,24.47
2023-07-08T05:59:40.205Z,24.66
2023-07-08T06:02:08.131Z,24.71
2023-07-08T06:04:34.994Z,24.81
2023-07-08T06:07:01.540Z,25.05
2023-07-08T06:09:28.488Z,25.18
2023-07-08T06:11:55.122Z,25.04
2023-07-08T06:14:21.816Z,25.12
2023-07-08T06:16:48.561Z,25.18
2023-07-08T06:19:15.320Z,25.29
2023-07-08T06:21:42.070Z,25.20
2023-07-08T06:24:08.582Z,25.29
2023-07-08T06:26:35.777Z,25.35
2023-07-08T06:29:02.808Z,25.77
2023-07-08T06:31:29.856Z,25.89
2023-07-08T06:33:56.705Z,26.25
2023-07-08T06:36:23.444Z,26.55
2023-07-08T06:38:50.229Z,26.74
2023-07-08T06:41:16.879Z,26.91
2023-07-08T06:43:43.382Z,27.04
2023-07-08T06:46:10.016Z,27.23
2023-07-08T06:48:36.941Z,26.95
2023-07-08T06:51:03.596Z,27.13
2023-07-08T06:53:30.109Z,27.20
2023-07-08T06:55:56.657Z,27.07
2023-07-08T06:58:23.200Z,26.93
2023-07-08T07:00:49.711Z,26.53
2023-07-08T07:03:16.374Z,26.59
2023-07-08T07:05:44.523Z,26.86
2023-07-08T07:08:10.998Z,26.91
2023-07-08T07:10:37.961Z,26.89
2023-07-08T07:13:04.837Z,26.75
2023-07-08T07:15:31.554Z,26.66
2023-07-08T07:17:58.695Z,26.73
2023-07-08T07:20:26.502Z,26.69
2023-07-08T07:22:53.996Z,26.86
2023-07-08T07:25:20.877Z,26.95
2023-07-08T07:27:47.987Z,27.27
2023-07-08T07:30:14.893Z,27.60
2023-07-08T07:32:42.541Z,27.89
2023-07-08T07:35:11.508Z,27.99
2023-07-08T07:37:38.013Z,28.41
2023-07-08T07:40:05.066Z,28.59
2023-07-08T07:42:31.587Z,28.83
2023-07-08T07:44:58.146Z,28.99
2023-07-08T07:47:24.721Z,29.10
2023-07-08T07:49:51.423Z,29.43
2023-07-08T07:52:18.060Z,29.74
2023-07-08T07:54:44.557Z,29.99
2023-07-08T07:57:11.242Z,30.17
2023-07-08T07:59:37.849Z,30.34
2023-07-08T08:02:04.889Z,30.32
2023-07-08T08:04:31.695Z,30.06
2023-07-08T08:06:58.165Z,29.79
2023-07-08T08:09:24.798Z,29.02
2023-07-08T08:11:51.420Z,28.79
2023-07-08T08:14:17.988Z,28.55
2023-07-08T08:16:44.596Z,28.59
2023-07-08T08:19:11.462Z,28.73
2023-07-08T08:21:38.021Z,28.50
2023-07-08T08:24:05.334Z,28.56
2023-07-08T08:26:32.084Z,28.83
2023-07-08T08:28:58.632Z,28.97
2023-07-08T08:31:25.372Z,29.01
2023-07-08T08:33:53.361Z,28.96
2023-07-08T08:36:20.735Z,28.90
2023-07-08T08:38:47.928Z,28.99
2023-07-08T08:41:20.623Z,28.73
2023-07-08T08:43:49.282Z,28.44
2023-07-08T08:46:40.617Z,28.34
2023-07-08T08:49:22.305Z,28.42
2023-07-08T08:51:50.074Z,28.43
2023-07-08T08:54:16.668Z,28.74
2023-07-08T08:57:08.259Z,28.71
2023-07-08T08:59:44.226Z,28.84
2023-07-08T09:02:26.492Z,28.86
2023-07-08T09:04:53.128Z,29.10
2023-07-08T09:07:21.664Z,29.50
2023-07-08T09:10:05.782Z,29.52
2023-07-08T09:12:35.252Z,29.22
2023-07-08T09:15:13.139Z,28.85
2023-07-08T09:17:39.812Z,28.51
2023-07-08T09:20:27.581Z,28.30
2023-07-08T09:23:16.889Z,28.19
2023-07-08T09:26:12.663Z,27.87
2023-07-08T09:28:41.614Z,27.54
2023-07-08T09:31:13.270Z,27.27
2023-07-08T09:33:40.084Z,27.21
2023-07-08T09:36:19.492Z,27.34
2023-07-08T09:38:50.428Z,27.55
2023-07-08T09:41:31.225Z,27.58
2023-07-08T09:44:17.796Z,27.87
2023-07-08T09:46:45.418Z,28.19
2023-07-08T09:49:35.260Z,28.44
2023-07-08T09:52:03.647Z,28.38
2023-07-08T09:54:31.730Z,28.43
2023-07-08T09:57:03.036Z,28.38
2023-07-08T09:59:32.800Z,28.05
2023-07-08T10:02:05.188Z,27.73
2023-07-08T10:04:31.914Z,27.46
2023-07-08T10:07:01.263Z,27.52
2023-07-08T10:09:27.952Z,27.69
2023-07-08T10:12:05.837Z,28.09
2023-07-08T10:14:44.187Z,28.48
2023-07-08T10:17:17.739Z,28.96
2023-07-08T10:19:44.262Z,29.26
2023-07-08T10:22:32.919Z,29.30
2023-07-08T10:25:29.447Z,29.18
2023-07-08T10:28:14.147Z,28.90
2023-07-08T10:31:00.818Z,28.60
2023-07-08T10:33:59.944Z,28.52
2023-07-08T10:37:14.173Z,28.37
2023-07-08T10:39:49.517Z,28.75
2023-07-08T10:42:29.019Z,28.80
2023-07-08T10:45:16.417Z,28.45
2023-07-08T10:48:12.771Z,28.68
2023-07-08T10:51:21.704Z,28.84
2023-07-08T10:54:07.916Z,29.08
2023-07-08T10:57:10.252Z,28.93
2023-07-08T10:59:39.566Z,28.51
2023-07-08T11:02:27.557Z,28.34
2023-07-08T11:05:22.771Z,28.43
2023-07-08T11:08:10.189Z,28.45
2023-07-08T11:10:47.139Z,28.45
2023-07-08T11:13:18.995Z,28.08
2023-07-08T11:16:11.281Z,27.96
2023-07-08T11:18:49.984Z,27.97
2023-07-08T11:21:28.413Z,28.03
2023-07-08T11:24:06.102Z,28.42
2023-07-08T11:26:45.400Z,28.63
2023-07-08T11:29:26.239Z,28.47
2023-07-08T11:31:55.337Z,28.53
2023-07-08T11:34:23.210Z,28.64
2023-07-08T11:36:52.106Z,28.51
2023-07-08T11:39:31.021Z,28.81
2023-07-08T11:42:22.577Z,29.26
2023-07-08T11:44:54.248Z,29.84
2023-07-08T11:47:33.925Z,30.18
2023-07-08T11:50:02.614Z,30.12
2023-07-08T11:52:31.060Z,29.81
2023-07-08T11:55:04.245Z,29.68
2023-07-08T11:57:38.480Z,29.78
2023-07-08T12:00:19.900Z,29.79
2023-07-08T12:02:54.104Z,29.91
2023-07-08T12:05:32.098Z,29.95
2023-07-08T12:07:59.683Z,29.88
2023-07-08T12:10:41.189Z,29.79
2023-07-08T12:13:14.825Z,29.69
2023-07-08T12:15:42.321Z,29.38
2023-07-08T12:18:14.904Z,29.20
2023-07-08T12:20:43.022Z,29.16
2023-07-08T12:23:16.869Z,28.87
2023-07-08T12:25:43.649Z,28.92
2023-07-08T12:28:12.113Z,29.02
2023-07-08T12:30:39.543Z,29.36
2023-07-08T12:33:23.212Z,29.72
2023-07-08T12:35:49.904Z,29.53
2023-07-08T12:38:27.263Z,29.45
2023-07-08T12:40:53.898Z,29.26
2023-07-08T12:43:20.710Z,29.21
2023-07-08T12:45:47.782Z,29.05
2023-07-08T12:48:14.310Z,29.25
2023-07-08T12:50:40.992Z,29.39
2023-07-08T12:53:07.798Z,29.35
2023-07-08T12:55:34.591Z,29.31
2023-07-08T12:58:02.570Z,29.30
2023-07-08T13:00:32.340Z,29.30
2023-07-08T13:03:09.527Z,29.39
2023-07-08T13:05:36.618Z,29.59
2023-07-08T13:08:03.396Z,29.98
2023-07-08T13:10:30.819Z,30.56
2023-07-08T13:13:01.739Z,31.18
2023-07-08T13:15:39.902Z,31.71
2023-07-08T13:18:15.302Z,32.19
2023-07-08T13:20:42.361Z,32.49
2023-07-08T13:23:09.842Z,32.66
2023-07-08T13:25:39.420Z,33.04
2023-07-08T13:28:20.348Z,33.29
2023-07-08T13:30:58.861Z,32.89
2023-07-08T13:33:30.850Z,32.84
2023-07-08T13:35:57.505Z,33.09
2023-07-08T13:38:27.331Z,33.01
2023-07-08T13:40:57.050Z,33.60
2023-07-08T13:43:29.529Z,34.13
2023-07-08T13:45:56.829Z,34.94
2023-07-08T13:48:40.054Z,35.06
2023-07-08T13:51:23.688Z,35.26
2023-07-08T13:53:53.295Z,35.98
2023-07-08T13:56:28.608Z,36.28
2023-07-08T13:59:07.250Z,36.17
2023-07-08T14:01:36.887Z,35.81
2023-07-08T14:04:04.335Z,35.90
2023-07-08T14:06:35.405Z,36.39
2023-07-08T14:09:20.149Z,36.37
2023-07-08T14:11:48.185Z,36.07
2023-07-08T14:14:15.366Z,36.24
2023-07-08T14:16:45.168Z,36.04
2023-07-08T14:19:33.219Z,35.63
2023-07-08T14:22:14.337Z,35.48
2023-07-08T14:24:44.250Z,35.77
2023-07-08T14:27:11.887Z,36.15
2023-07-08T14:29:39.751Z,36.34
2023-07-08T14:32:13.961Z,36.28
2023-07-08T14:34:42.846Z,36.59
2023-07-08T14:37:15.488Z,36.79
2023-07-08T14:39:42.228Z,36.73
2023-07-08T14:42:12.450Z,36.72
2023-07-08T14:44:40.480Z,36.75
2023-07-08T14:47:15.233Z,36.58
2023-07-08T14:49:42.389Z,36.36
2023-07-08T14:52:09.998Z,36.08
2023-07-08T14:54:37.206Z,35.70
2023-07-08T14:57:05.707Z,35.29
2023-07-08T14:59:35.226Z,34.43
2023-07-08T15:02:16.222Z,33.60
2023-07-08T15:04:42.708Z,32.94
2023-07-08T15:07:10.075Z,31.82
2023-07-08T15:09:36.623Z,30.81
2023-07-08T15:12:03.483Z,30.16
2023-07-08T15:14:30.439Z,29.80
2023-07-08T15:16:57.274Z,29.50
2023-07-08T15:19:25.421Z,29.39
2023-07-08T15:21:52.116Z,29.36
2023-07-08T15:24:19.211Z,29.40
2023-07-08T15:26:48.306Z,29.61
2023-07-08T15:29:24.379Z,30.03
2023-07-08T15:31:51.722Z,31.46
2023-07-08T15:34:22.595Z,32.78
2023-07-08T15:36:49.544Z,33.42
2023-07-08T15:39:16.593Z,34.12
2023-07-08T15:41:44.407Z,34.89
2023-07-08T15:44:13.234Z,35.30
2023-07-08T15:46:47.390Z,35.51
2023-07-08T15:49:19.885Z,35.83
2023-07-08T15:51:49.802Z,35.87
2023-07-08T15:54:18.944Z,36.41
2023-07-08T15:56:46.092Z,36.92
2023-07-08T15:59:20.823Z,37.15
2023-07-08T16:01:47.394Z,37.31
2023-07-08T16:04:22.694Z,37.65
2023-07-08T16:06:49.224Z,37.54
2023-07-08T16:09:15.765Z,37.58
2023-07-08T16:11:43.222Z,37.62
2023-07-08T16:14:15.083Z,37.70
2023-07-08T16:16:43.480Z,37.59
2023-07-08T16:19:15.216Z,37.63
2023-07-08T16:21:42.567Z,37.73
2023-07-08T16:24:09.224Z,37.98
2023-07-08T16:26:36.825Z,38.32
2023-07-08T16:29:04.088Z,38.36
2023-07-08T16:31:31.279Z,38.44
2023-07-08T16:33:58.114Z,37.26
2023-07-08T16:36:27.455Z,35.27
2023-07-08T16:38:55.004Z,33.52
2023-07-08T16:41:29.857Z,32.47
2023-07-08T16:43:56.776Z,32.12
2023-07-08T16:46:23.694Z,32.64
2023-07-08T16:48:50.247Z,33.41
2023-07-08T16:51:19.412Z,33.89
2023-07-08T16:53:46.495Z,34.15
2023-07-08T16:56:14.464Z,34.34
2023-07-08T16:58:40.977Z,34.56
2023-07-08T17:01:18.699Z,35.02
2023-07-08T17:03:45.247Z,35.62
2023-07-08T17:06:11.759Z,36.12
2023-07-08T17:08:38.332Z,36.44
2023-07-08T17:11:05.018Z,36.03
2023-07-08T17:13:32.314Z,35.22
2023-07-08T17:15:59.136Z,35.34
2023-07-08T17:18:26.336Z,35.34
2023-07-08T17:20:54.154Z,34.98
2023-07-08T17:23:22.810Z,34.66
2023-07-08T17:25:49.690Z,34.47
2023-07-08T17:28:16.747Z,34.45
2023-07-08T17:30:47.770Z,33.75
2023-07-08T17:33:16.997Z,32.60
2023-07-08T17:35:43.944Z,32.28
2023-07-08T17:38:15.117Z,32.66
2023-07-08T17:40:41.706Z,33.15
2023-07-08T17:43:09.494Z,33.39
2023-07-08T17:45:40.433Z,33.39
2023-07-08T17:48:24.466Z,33.24
2023-07-08T17:50:53.711Z,33.11
2023-07-08T17:53:21.280Z,32.95
2023-07-08T17:55:51.104Z,32.79
2023-07-08T17:58:18.351Z,32.52
2023-07-08T18:00:45.094Z,32.23
2023-07-08T18:03:12.366Z,31.91
2023-07-08T18:05:39.117Z,31.60
2023-07-08T18:08:05.661Z,31.23
2023-07-08T18:10:32.882Z,30.94
2023-07-08T18:13:01.587Z,30.61
2023-07-08T18:15:39.153Z,30.34
2023-07-08T18:18:05.974Z,29.92
2023-07-08T18:20:38.284Z,28.87
2023-07-08T18:23:10.886Z,27.73
2023-07-08T18:25:37.649Z,26.68
2023-07-08T18:28:04.286Z,25.80
2023-07-08T18:30:31.023Z,25.01
2023-07-08T18:32:57.708Z,24.34
2023-07-08T18:35:30.325Z,23.75
2023-07-08T18:37:57.720Z,23.13
2023-07-08T18:40:32.930Z,22.57
2023-07-08T18:43:11.379Z,22.06
2023-07-08T18:45:37.922Z,21.61
2023-07-08T18:48:05.020Z,21.25
2023-07-08T18:50:31.723Z,20.92
2023-07-08T18:52:58.270Z,20.61
2023-07-08T18:55:26.032Z,20.32
2023-07-08T18:57:55.760Z,20.05
2023-07-08T19:00:22.820Z,19.79
2023-07-08T19:03:00.553Z,19.55
2023-07-08T19:05:27.828Z,19.33
2023-07-08T19:07:55.238Z,19.15
2023-07-08T19:10:28.597Z,19.02
2023-07-08T19:12:55.348Z,18.88
2023-07-08T19:15:29.809Z,18.74
2023-07-08T19:17:57.384Z,18.64
2023-07-08T19:20:31.232Z,18.52
2023-07-08T19:22:57.837Z,18.40
2023-07-08T19:25:26.478Z,18.28
2023-07-08T19:27:54.213Z,18.16
2023-07-08T19:30:21.045Z,18.04
2023-07-08T19:32:55.430Z,17.90
2023-07-08T19:35:24.070Z,17.76
2023-07-08T19:37:51.690Z,17.64
2023-07-08T19:40:23.280Z,17.52
2023-07-08T19:42:52.519Z,17.40
2023-07-08T19:45:27.441Z,17.31
2023-07-08T19:47:55.841Z,17.22
2023-07-08T19:50:25.194Z,17.13
2023-07-08T19:52:52.509Z,17.02
2023-07-08T19:55:19.595Z,16.91
2023-07-08T19:57:48.068Z,16.80
2023-07-08T20:00:22.444Z,16.70
2023-07-08T20:02:53.737Z,16.60
2023-07-08T20:05:23.303Z,16.52
2023-07-08T20:07:50.103Z,16.42
2023-07-08T20:10:18.911Z,16.33
2023-07-08T20:12:46.266Z,16.23
2023-07-08T20:15:13.246Z,16.14
2023-07-08T20:17:40.758Z,16.08
2023-07-08T20:20:28.776Z,16.00
2023-07-08T20:22:56.104Z,15.91
2023-07-08T20:25:24.638Z,15.83
2023-07-08T20:27:53.599Z,15.76
2023-07-08T20:30:29.245Z,15.69
2023-07-08T20:32:57.874Z,15.63
2023-07-08T20:35:29.083Z,15.56
2023-07-08T20:37:56.243Z,15.48
2023-07-08T20:40:26.231Z,15.41
2023-07-08T20:42:54.023Z,15.35
2023-07-08T20:45:25.601Z,15.30
2023-07-08T20:47:52.500Z,15.23
2023-07-08T20:50:22.204Z,15.16
2023-07-08T20:52:49.779Z,15.09
2023-07-08T20:55:18.118Z,15.03
2023-07-08T20:57:46.337Z,14.99
2023-07-08T21:00:28.179Z,14.93
2023-07-08T21:02:55.837Z,14.86
2023-07-08T21:05:23.769Z,14.80
2023-07-08T21:07:50.366Z,14.72
2023-07-08T21:10:19.439Z,14.66
2023-07-08T21:12:47.021Z,14.59
2023-07-08T21:15:15.971Z,14.54
2023-07-08T21:17:43.851Z,14.49
2023-07-08T21:20:21.738Z,14.44
2023-07-08T21:22:49.040Z,14.37
2023-07-08T21:25:17.534Z,14.30
2023-07-08T21:27:45.755Z,14.23
2023-07-08T21:30:21.328Z,14.14
2023-07-08T21:32:48.947Z,14.06
2023-07-08T21:35:16.428Z,14.01
2023-07-08T21:37:51.569Z,14.02
2023-07-08T21:40:36.469Z,13.99
2023-07-08T21:43:11.991Z,13.94
2023-07-08T21:45:40.250Z,13.86
2023-07-08T21:48:09.038Z,13.83
2023-07-08T21:51:00.543Z,13.77
2023-07-08T21:53:36.831Z,13.69
2023-07-08T21:56:04.911Z,13.63
2023-07-08T21:58:31.796Z,13.57
2023-07-08T22:00:58.368Z,13.51
2023-07-08T22:03:28.014Z,13.48
2023-07-08T22:05:56.261Z,13.42
2023-07-08T22:08:26.084Z,13.35
2023-07-08T22:10:58.513Z,13.29
2023-07-08T22:13:27.553Z,13.23
2023-07-08T22:15:56.256Z,13.17
2023-07-08T22:18:23.536Z,13.13
2023-07-08T22:20:52.056Z,13.10
2023-07-08T22:23:19.779Z,13.08
2023-07-08T22:25:46.993Z,13.04
2023-07-08T22:28:13.678Z,12.98
2023-07-08T22:30:41.691Z,12.92
2023-07-08T22:33:13.102Z,12.87
2023-07-08T22:35:40.866Z,12.83
2023-07-08T22:38:08.526Z,12.80
2023-07-08T22:40:39.672Z,12.76
2023-07-08T22:43:09.642Z,12.73
2023-07-08T22:45:36.108Z,12.71
2023-07-08T22:48:02.902Z,12.71
2023-07-08T22:50:31.438Z,12.73
2023-07-08T22:52:58.537Z,12.71
2023-07-08T22:55:29.992Z,12.67
2023-07-08T22:58:00.334Z,12.62
2023-07-08T23:00:28.402Z,12.55
2023-07-08T23:02:55.078Z,12.49
2023-07-08T23:05:26.707Z,12.43
2023-07-08T23:07:53.330Z,12.37
2023-07-08T23:10:20.347Z,12.34
2023-07-08T23:12:47.179Z,12.31
2023-07-08T23:15:14.218Z,12.26
2023-07-08T23:17:43.449Z,12.24
2023-07-08T23:20:21.229Z,12.22
2023-07-08T23:22:47.782Z,12.20
2023-07-08T23:25:14.712Z,12.18
2023-07-08T23:27:42.502Z,12.14
2023-07-08T23:30:19.684Z,12.09
2023-07-08T23:32:46.868Z,12.03
2023-07-08T23:35:13.588Z,11.97
2023-07-08T23:37:41.810Z,11.92
2023-07-08T23:40:16.757Z,11.87
2023-07-08T23:42:44.493Z,11.83
2023-07-08T23:45:13.802Z,11.79
2023-07-08T23:47:42.096Z,11.77
2023-07-08T23:50:19.186Z,11.74
2023-07-08T23:52:45.921Z,11.71
2023-07-08T23:55:12.591Z,11.70
2023-07-08T23:57:39.776Z,11.69
